Dades meteomassalio
Diari Summary for Gener 19, 2017 Units:  English    Metric   Both
« Previous Day
Next Day »
Diari Semanal Mensual Anual Personalitzat
  Maxima: Minima: Mijana:
Temperatura: 36.3 °F 24.1 °F 31.5 °F
Rosada: 28.4 °F 19.8 °F 24.4 °F
Humitat: 88 % 65 % 76 %
Velocitat del vent: 10.4 mph 0 mph 1.7 mph
Racha vent: 10.4 mph - -
Vent:- - West
Pressio: 30.4 in 30.3 in -
Pluja: 0 in    
Historical Graphs
 
 
Tabular Data for Gener 19, 2017
Time Temperature Dew Point Pressure Wind Wind Speed Wind Gust Humidity Rainfall Rate (Hourly) solar Conditions
00:02 28 °F 21.4 °F 30.3 in Calm     76 % 0 in 0.0 W/m2 CLR
00:07 27.3 °F 20.7 °F 30.3 in Calm     76 % 0 in 0.0 W/m2 CLR
00:12 26.8 °F 20.7 °F 30.3 in Calm     77 % 0 in 0.0 W/m2 CLR
00:17 26.4 °F 20.5 °F 30.3 in Calm     78 % 0 in 0.0 W/m2 CLR
00:22 26.1 °F 20.5 °F 30.3 in Calm     79 % 0 in 0.0 W/m2 CLR
00:27 26.1 °F 20.7 °F 30.3 in SW 3.5 mph 3.5 mph 80 % 0 in 0.0 W/m2 CLR
00:32 26.2 °F 21.2 °F 30.3 in SW 4.6 mph 4.6 mph 81 % 0 in 0.0 W/m2 CLR
00:37 26.8 °F 21.7 °F 30.3 in SW 3.5 mph 3.5 mph 81 % 0 in 0.0 W/m2 CLR
00:42 27 °F 21.6 °F 30.3 in SSW 4 mph 4 mph 80 % 0 in 0.0 W/m2 CLR
00:47 27 °F 21.6 °F 30.3 in SW 4.6 mph 4.6 mph 80 % 0 in 0.0 W/m2 CLR
00:52 27 °F 21.6 °F 30.3 in SW 5.8 mph 5.8 mph 80 % 0 in 0.0 W/m2 CLR
00:57 26.8 °F 21.6 °F 30.3 in SW 5.8 mph 5.8 mph 80 % 0 in 0.0 W/m2 CLR
01:02 27 °F 21.6 °F 30.3 in WSW 4 mph 4 mph 80 % 0 in 0.0 W/m2 CLR
01:07 27.1 °F 21.7 °F 30.3 in SW 4 mph 4 mph 80 % 0 in 0.0 W/m2 CLR
01:12 27.1 °F 21.7 °F 30.3 in SW 4 mph 4 mph 80 % 0 in 0.0 W/m2 CLR
01:17 27.3 °F 21.9 °F 30.3 in WSW 5 mph 5 mph 80 % 0 in 0.0 W/m2 CLR
01:22 27.3 °F 21.7 °F 30.3 in Calm     79 % 0 in 0.0 W/m2 CLR
01:27 26.8 °F 20.8 °F 30.3 in Calm     78 % 0 in 0.0 W/m2 CLR
01:32 26.4 °F 20.8 °F 30.3 in Calm     79 % 0 in 0.0 W/m2 CLR
01:37 25.9 °F 20.3 °F 30.3 in Calm     79 % 0 in 0.0 W/m2 CLR
01:42 25.5 °F 20.1 °F 30.3 in Calm     80 % 0 in 0.0 W/m2 CLR
01:47 25.3 °F 20.3 °F 30.3 in Calm     81 % 0 in 0.0 W/m2 CLR
01:52 25.2 °F 20.5 °F 30.3 in Calm     82 % 0 in 0.0 W/m2 CLR
01:57 25 °F 20.3 °F 30.3 in Calm     82 % 0 in 0.0 W/m2 CLR
02:02 25 °F 20.1 °F 30.3 in Calm     82 % 0 in 0.0 W/m2 CLR
02:07 24.8 °F 20.5 °F 30.3 in Calm     83 % 0 in 0.0 W/m2 CLR
02:12 24.6 °F 20.3 °F 30.3 in Calm     83 % 0 in 0.0 W/m2 CLR
02:17 24.4 °F 19.8 °F 30.3 in Calm     82 % 0 in 0.0 W/m2 CLR
02:22 24.3 °F 19.9 °F 30.3 in Calm     83 % 0 in 0.0 W/m2 CLR
02:27 24.4 °F 20.3 °F 30.3 in Calm     84 % 0 in 0.0 W/m2 CLR
02:32 24.4 °F 20.3 °F 30.3 in South 2.3 mph 2.3 mph 84 % 0 in 0.0 W/m2 CLR
02:37 24.6 °F 20.5 °F 30.3 in Calm     84 % 0 in 0.0 W/m2 CLR
02:42 24.3 °F 19.9 °F 30.3 in Calm     83 % 0 in 0.0 W/m2 CLR
02:47 24.1 °F 19.9 °F 30.3 in Calm     84 % 0 in 0.0 W/m2 CLR
02:52 24.1 °F 20.1 °F 30.3 in Calm     85 % 0 in 0.0 W/m2 CLR
02:57 24.4 °F 20.8 °F 30.3 in Calm     86 % 0 in 0.0 W/m2 CLR
03:02 25 °F 21.4 °F 30.3 in Calm     86 % 0 in 0.0 W/m2 CLR
03:07 25.3 °F 21.7 °F 30.4 in SW 3 mph   86 % 0 in 0.0 W/m2 CLR
03:12 25.9 °F 22.3 °F 30.4 in SW 3.5 mph 3.5 mph 86 % 0 in 0.0 W/m2 CLR
03:17 26.4 °F 22.6 °F 30.3 in WSW 5 mph 5 mph 85 % 0 in 0.0 W/m2 CLR
03:22 27.5 °F 23.4 °F 30.3 in WSW 3.5 mph 3.5 mph 84 % 0 in 0.0 W/m2 CLR
03:27 28 °F 23.4 °F 30.3 in WSW 5.8 mph 5.8 mph 82 % 0 in 0.0 W/m2 CLR
03:32 28.6 °F 23.4 °F 30.3 in WSW 3.5 mph 3.5 mph 81 % 0 in 0.0 W/m2 CLR
03:37 28.6 °F 23.2 °F 30.3 in Calm     80 % 0 in 0.0 W/m2 CLR
03:42 28.6 °F 23.2 °F 30.3 in WSW 2 mph 2 mph 80 % 0 in 0.0 W/m2 CLR
03:47 28 °F 22.6 °F 30.3 in Calm     80 % 0 in 0.0 W/m2 CLR
03:52 28 °F 22.6 °F 30.3 in Calm     80 % 0 in 0.0 W/m2 CLR
03:57 28 °F 23 °F 30.3 in Calm     81 % 0 in 0.0 W/m2 CLR
04:02 28.4 °F 23.4 °F 30.3 in Calm     81 % 0 in 0.0 W/m2 CLR
04:07 28.6 °F 23.2 °F 30.3 in Calm   0.3 mph 80 % 0 in 0.0 W/m2 CLR
04:12 28.4 °F 23 °F 30.3 in Calm     80 % 0 in 0.0 W/m2 CLR
04:17 28.2 °F 22.8 °F 30.3 in Calm     80 % 0 in 0.0 W/m2 CLR
04:22 28.2 °F 23.2 °F 30.3 in SSE 3.5 mph 3.5 mph 81 % 0 in 0.0 W/m2 CLR
04:27 28.6 °F 23.5 °F 30.3 in West 3.5 mph 3.5 mph 81 % 0 in 0.0 W/m2 CLR
04:32 28.9 °F 23.5 °F 30.3 in WSW 3.5 mph 3.5 mph 80 % 0 in 0.0 W/m2 CLR
04:37 28.9 °F 23.4 °F 30.3 in SW 3.5 mph 3.5 mph 79 % 0 in 0.0 W/m2 CLR
04:43 28.9 °F 23.2 °F 30.3 in SW 2.3 mph 2.3 mph 79 % 0 in 0.0 W/m2 CLR
04:48 28.8 °F 23 °F 30.3 in SW 3.5 mph 3.5 mph 79 % 0 in 0.0 W/m2 CLR
04:53 28.6 °F 23.2 °F 30.3 in WSW 3.5 mph 3.5 mph 80 % 0 in 0.0 W/m2 CLR
04:58 28.6 °F 23.2 °F 30.3 in SW 3.5 mph 3.5 mph 80 % 0 in 0.0 W/m2 CLR
05:03 28.6 °F 23.2 °F 30.3 in SW 3.5 mph 3.5 mph 80 % 0 in 0.0 W/m2 CLR
05:08 28.4 °F 23 °F 30.3 in SW 2.3 mph 2.3 mph 80 % 0 in 0.0 W/m2 CLR
05:13 28.2 °F 22.8 °F 30.3 in Calm     80 % 0 in 0.0 W/m2 CLR
05:18 28.2 °F 22.8 °F 30.3 in Calm     80 % 0 in 0.0 W/m2 CLR
05:23 28.2 °F 23.2 °F 30.3 in SW 2.3 mph 2.3 mph 81 % 0 in 0.0 W/m2 CLR
05:28 28.2 °F 22.8 °F 30.3 in Calm     80 % 0 in 0.0 W/m2 CLR
05:33 28 °F 22.6 °F 30.3 in Calm     80 % 0 in 0.0 W/m2 CLR
05:38 28 °F 22.8 °F 30.3 in WSW 3.5 mph 3.5 mph 81 % 0 in 0.0 W/m2 CLR
05:43 28.2 °F 23.2 °F 30.3 in West 4.6 mph 4.6 mph 81 % 0 in 0.0 W/m2 CLR
05:48 28.2 °F 22.8 °F 30.3 in West 3.5 mph 3.5 mph 80 % 0 in 0.0 W/m2 CLR
05:53 28.2 °F 22.8 °F 30.3 in West 2.3 mph 2.3 mph 80 % 0 in 0.0 W/m2 CLR
05:58 28.2 °F 22.8 °F 30.3 in Calm     80 % 0 in 0.0 W/m2 CLR
06:03 27.9 °F 22.5 °F 30.3 in West 2.3 mph 2.3 mph 80 % 0 in 0.0 W/m2 CLR
06:08 27.9 °F 22.6 °F 30.3 in West 4.6 mph 4.6 mph 81 % 0 in 0.0 W/m2 CLR
06:13 28.2 °F 23.2 °F 30.3 in West 3.5 mph 3.5 mph 81 % 0 in 0.0 W/m2 CLR
06:18 28.2 °F 23.2 °F 30.3 in Calm     81 % 0 in 0.0 W/m2 CLR
06:23 28 °F 22.6 °F 30.3 in Calm     80 % 0 in 0.0 W/m2 CLR
06:28 27.7 °F 22.6 °F 30.3 in WSW 2.3 mph 2.3 mph 81 % 0 in 0.0 W/m2 CLR
06:33 27.5 °F 22.6 °F 30.3 in Calm     82 % 0 in 0.0 W/m2 CLR
06:38 27.3 °F 22.5 °F 30.3 in Calm     82 % 0 in 0.0 W/m2 CLR
06:43 27.1 °F 22.5 °F 30.3 in Calm     82 % 0 in 0.0 W/m2 CLR
06:48 27.1 °F 22.6 °F 30.3 in Calm     83 % 0 in 0.0 W/m2 CLR
06:53 27 °F 22.5 °F 30.3 in Calm     83 % 0 in 0.0 W/m2 CLR
06:58 27 °F 22.5 °F 30.3 in SSW 4 mph 4 mph 83 % 0 in 0.0 W/m2 CLR
07:03 26.8 °F 22.3 °F 30.3 in SW 3.5 mph 3.5 mph 83 % 0 in 0.0 W/m2 CLR
07:08 26.6 °F 22.5 °F 30.3 in WSW 3.5 mph 3.5 mph 84 % 0 in 0.0 W/m2 CLR
07:13 26.4 °F 22.3 °F 30.3 in WSW 4.6 mph 4.6 mph 84 % 0 in 0.0 W/m2 CLR
07:18 27 °F 22.8 °F 30.3 in West 3.5 mph 3.5 mph 84 % 0 in 0.0 W/m2 CLR
07:23 27.1 °F 22.6 °F 30.3 in Calm     83 % 0 in 0.0 W/m2 CLR
07:28 26.8 °F 22.3 °F 30.3 in WSW 3.5 mph 3.5 mph 83 % 0 in 0.0 W/m2 CLR
07:33 26.6 °F 22.1 °F 30.3 in SW 3.5 mph 3.5 mph 83 % 0 in 0.0 W/m2 CLR
07:38 26.4 °F 21.9 °F 30.3 in SSW 3.5 mph 3.5 mph 83 % 0 in 0.0 W/m2 CLR
07:43 26.2 °F 21.7 °F 30.4 in Calm     83 % 0 in 0.0 W/m2 CLR
07:48 25.9 °F 21.7 °F 30.4 in Calm     84 % 0 in 0.0 W/m2 CLR
07:53 25.7 °F 21.6 °F 30.4 in Calm     84 % 0 in 0.0 W/m2 CLR
07:58 25.5 °F 21.7 °F 30.4 in Calm     85 % 0 in 0.0 W/m2 CLR
08:03 25.5 °F 21.6 °F 30.4 in Calm     85 % 0 in 0.0 W/m2 CLR
08:08 25.3 °F 21.4 °F 30.4 in Calm     85 % 0 in 0.0 W/m2 CLR
08:13 25.2 °F 21.2 °F 30.4 in Calm     85 % 0 in 0.0 W/m2 CLR
08:18 25 °F 21 °F 30.4 in Calm     85 % 0 in 0.0 W/m2 CLR
08:23 24.6 °F 20.7 °F 30.4 in Calm     85 % 0 in 0.0 W/m2 OVC
08:28 24.6 °F 21 °F 30.4 in Calm     86 % 0 in 7.0 W/m2 OVC
08:33 24.4 °F 20.8 °F 30.4 in Calm     86 % 0 in 11.0 W/m2 OVC
08:38 24.3 °F 20.7 °F 30.4 in Calm     86 % 0 in 14.0 W/m2 BKN
08:43 24.4 °F 21 °F 30.4 in Calm     87 % 0 in 19.0 W/m2 BKN
08:48 24.4 °F 21 °F 30.4 in SW 1 mph 1 mph 87 % 0 in 25.0 W/m2 BKN
08:53 24.3 °F 20.8 °F 30.4 in SW 2.3 mph 2.3 mph 87 % 0 in 28.0 W/m2 BKN
08:58 24.3 °F 20.8 °F 30.4 in SW 2.3 mph 2.3 mph 87 % 0 in 33.0 W/m2 BKN
09:03 24.3 °F 21 °F 30.4 in Calm     87 % 0 in 40.0 W/m2 BKN
09:08 24.4 °F 21.4 °F 30.4 in Calm     88 % 0 in 47.0 W/m2 BKN
09:13 24.4 °F 21.2 °F 30.4 in Calm     87 % 0 in 51.0 W/m2 BKN
09:18 24.6 °F 21.4 °F 30.4 in Calm     87 % 0 in 54.0 W/m2 BKN
09:23 25 °F 21.6 °F 30.4 in Calm     87 % 0 in 62.0 W/m2 BKN
09:28 25 °F 21.7 °F 30.4 in Calm     87 % 0 in 79.0 W/m2 BKN
09:33 25.2 °F 21.9 °F 30.4 in Calm     87 % 0 in 114.0 W/m2 BKN
09:38 25.5 °F 22.3 °F 30.4 in Calm     87 % 0 in 137.0 W/m2 BKN
09:43 26.2 °F 23 °F 30.4 in Calm     87 % 0 in 163.0 W/m2 BKN
09:48 26.8 °F 23.2 °F 30.4 in Calm     86 % 0 in 183.0 W/m2 BKN
09:53 27.3 °F 23.7 °F 30.4 in Calm     86 % 0 in 178.0 W/m2 BKN
09:58 28 °F 24.3 °F 30.4 in Calm     85 % 0 in 181.0 W/m2 SCT
10:03 28.8 °F 24.6 °F 30.4 in Calm     84 % 0 in 225.0 W/m2 BKN
10:08 29.7 °F 25.5 °F 30.4 in Calm     84 % 0 in 285.0 W/m2 SCT
10:13 30.7 °F 26.1 °F 30.4 in Calm     82 % 0 in 302.0 W/m2 SCT
10:18 31.6 °F 26.4 °F 30.4 in Calm     81 % 0 in 281.0 W/m2 SCT
10:23 32.5 °F 26.8 °F 30.4 in West 4 mph 4 mph 79 % 0 in 271.0 W/m2 SCT
10:29 33.1 °F 26.6 °F 30.3 in WNW 6 mph 6 mph 77 % 0 in 271.0 W/m2 SCT
10:34 33.4 °F 26.6 °F 30.3 in NW 6 mph 6 mph 76 % 0 in 288.0 W/m2 SCT
10:39 33.6 °F 26.6 °F 30.3 in NW 7 mph 7 mph 75 % 0 in 294.0 W/m2 SCT
10:44 33.8 °F 26.4 °F 30.3 in NW 7 mph 7 mph 74 % 0 in 290.0 W/m2 SCT
10:49 33.8 °F 26.1 °F 30.3 in NW 9.2 mph 9.2 mph 73 % 0 in 288.0 W/m2 SCT
10:54 33.6 °F 26.1 °F 30.3 in NW 10.4 mph 10.4 mph 73 % 0 in 295.0 W/m2 SCT
10:59 33.8 °F 26.1 °F 30.3 in NW 8.1 mph 8.1 mph 73 % 0 in 325.0 W/m2 SCT
11:04 34 °F 26.2 °F 30.3 in NW 6.9 mph 6.9 mph 73 % 0 in 322.0 W/m2 SCT
11:09 34.2 °F 26.4 °F 30.3 in NW 6.9 mph 6.9 mph 73 % 0 in 341.0 W/m2 SCT
11:14 34.3 °F 26.2 °F 30.3 in NW 8.1 mph 8.1 mph 72 % 0 in 353.0 W/m2 SCT
11:19 34.3 °F 26.2 °F 30.3 in NW 5.8 mph 5.8 mph 72 % 0 in 336.0 W/m2 SCT
11:24 34.5 °F 26.1 °F 30.3 in NW 8.1 mph 8.1 mph 71 % 0 in 364.0 W/m2 SCT
11:29 34.3 °F 26.2 °F 30.3 in NW 3.5 mph   72 % 0 in 369.0 W/m2 SCT
11:34 34.7 °F 26.6 °F 30.3 in NW 6.9 mph 7.2 mph 72 % 0 in 355.0 W/m2 SCT
11:39 34.7 °F 26.2 °F 30.3 in NW 8.1 mph 8.1 mph 71 % 0 in 364.0 W/m2 SCT
11:44 34.9 °F 26.1 °F 30.3 in WNW 5.8 mph 5.8 mph 70 % 0 in 371.0 W/m2 SCT
11:49 35.2 °F 26.4 °F 30.3 in WNW 5.8 mph 5.8 mph 70 % 0 in 374.0 W/m2 SCT
11:54 35.4 °F 26.8 °F 30.3 in NNW 7 mph 7 mph 70 % 0 in 394.0 W/m2 SCT
11:59 35.6 °F 26.4 °F 30.3 in NW 10.4 mph 10.4 mph 69 % 0 in 429.0 W/m2 FEW
12:04 35.8 °F 26.2 °F 30.3 in NW 9.2 mph 9.2 mph 68 % 0 in 431.0 W/m2 FEW
12:09 35.8 °F 26.2 °F 30.3 in NW 9.2 mph 9.2 mph 68 % 0 in 179.0 W/m2 SCT
12:14 35.8 °F 26.2 °F 30.3 in NW 6 mph 6 mph 68 % 0 in 517.0 W/m2 SCT
12:20 36.1 °F 26.6 °F 30.3 in WNW 10.4 mph 10.4 mph 68 % 0 in 471.0 W/m2 SCT
12:25 36.3 °F 26.4 °F 30.3 in NW 8.1 mph 8.1 mph 67 % 0 in 392.0 W/m2 CLR
12:30 36.1 °F 26.2 °F 30.3 in NW 6 mph 6 mph 67 % 0 in 165.0 W/m2 FEW
12:35 35.8 °F 25.9 °F 30.3 in NW 2 mph 2 mph 67 % 0 in 146.0 W/m2 BKN
12:40 35.8 °F 26.2 °F 30.3 in NW 4.6 mph 4.6 mph 68 % 0 in 156.0 W/m2 BKN
12:45 36 °F 26.4 °F 30.3 in NW 5.8 mph 5.8 mph 68 % 0 in 216.0 W/m2 BKN
12:50 36 °F 26.1 °F 30.3 in NW 3.5 mph 3.5 mph 67 % 0 in 163.0 W/m2 BKN
12:55 35.8 °F 26.2 °F 30.3 in NNW 5.8 mph 5.8 mph 68 % 0 in 123.0 W/m2 BKN
13:00 35.4 °F 26.2 °F 30.3 in Calm     69 % 0 in 104.0 W/m2 BKN
13:05 35.4 °F 26.2 °F 30.3 in North 5.8 mph 5.8 mph 69 % 0 in 77.0 W/m2 BKN
13:10 35.4 °F 26.6 °F 30.3 in North 3.5 mph 3.5 mph 70 % 0 in 63.0 W/m2 BKN
13:15 35.2 °F 26.4 °F 30.3 in North 3.5 mph 3.5 mph 70 % 0 in 74.0 W/m2 BKN
13:20 35.2 °F 26.4 °F 30.3 in North 3.5 mph 3.5 mph 70 % 0 in 95.0 W/m2 BKN
13:25 35.2 °F 26.4 °F 30.3 in North 3.5 mph 3.5 mph 70 % 0 in 72.0 W/m2 BKN
13:30 35.2 °F 26.4 °F 30.3 in NW 3 mph 3 mph 70 % 0 in 53.0 W/m2 BKN
13:35 35.2 °F 26.4 °F 30.3 in NNW 4.6 mph 4.6 mph 70 % 0 in 65.0 W/m2 BKN
13:40 35.1 °F 26.2 °F 30.3 in Calm     70 % 0 in 111.0 W/m2 BKN
13:45 35.1 °F 26.6 °F 30.3 in NNW 4.6 mph 4.6 mph 71 % 0 in 69.0 W/m2 BKN
13:50 35.1 °F 26.4 °F 30.3 in Calm     71 % 0 in 46.0 W/m2 BKN
13:55 35.1 °F 26.4 °F 30.3 in NW 3.5 mph 3.5 mph 71 % 0 in 35.0 W/m2 BKN
14:00 34.9 °F 26.4 °F 30.3 in Calm     71 % 0 in 33.0 W/m2 BKN
14:05 34.9 °F 26.8 °F 30.3 in Calm     72 % 0 in 56.0 W/m2 BKN
14:10 34.9 °F 26.4 °F 30.3 in Calm     71 % 0 in 65.0 W/m2 BKN
14:15 34.7 °F 26.6 °F 30.3 in NNW 4.6 mph 4.6 mph 72 % 0 in 46.0 W/m2 BKN
14:20 34.9 °F 26.8 °F 30.3 in NW 3.5 mph 3.5 mph 72 % 0 in 46.0 W/m2 BKN
14:25 34.7 °F 26.6 °F 30.3 in NW 3.5 mph 3.5 mph 72 % 0 in 44.0 W/m2 BKN
14:30 34.5 °F 26.4 °F 30.3 in NW 4.6 mph 4.6 mph 72 % 0 in 54.0 W/m2 BKN
14:35 34.7 °F 27 °F 30.3 in NNW 5 mph 5 mph 73 % 0 in 81.0 W/m2 BKN
14:40 34.9 °F 26.8 °F 30.3 in NNW 3.5 mph 3.5 mph 72 % 0 in 74.0 W/m2 BKN
14:45 34.9 °F 26.8 °F 30.3 in Calm     72 % 0 in 60.0 W/m2 BKN
14:50 34.9 °F 26.8 °F 30.3 in NW 3.5 mph 3.5 mph 72 % 0 in 77.0 W/m2 BKN
14:55 35.1 °F 27 °F 30.3 in NW 3.5 mph 3.5 mph 72 % 0 in 65.0 W/m2 BKN
15:00 35.1 °F 27 °F 30.3 in NW 2.3 mph   72 % 0 in 77.0 W/m2 BKN
15:05 35.1 °F 27 °F 30.3 in Calm     72 % 0 in 90.0 W/m2 BKN
15:10 35.1 °F 27 °F 30.3 in Calm     72 % 0 in 113.0 W/m2 BKN
15:15 35.2 °F 27.1 °F 30.3 in Calm     72 % 0 in 146.0 W/m2 BKN
15:20 35.2 °F 26.8 °F 30.3 in Calm     71 % 0 in 142.0 W/m2 SCT
15:25 35.4 °F 27 °F 30.3 in NW 2.3 mph 2.3 mph 71 % 0 in 105.0 W/m2 SCT
15:30 35.4 °F 26.6 °F 30.3 in WNW 3.5 mph 3.5 mph 70 % 0 in 84.0 W/m2 BKN
15:35 35.4 °F 26.6 °F 30.3 in WNW 3.5 mph 3.5 mph 70 % 0 in 65.0 W/m2 BKN
15:40 35.4 °F 26.8 °F 30.3 in Calm     70 % 0 in 70.0 W/m2 BKN
15:45 35.4 °F 26.2 °F 30.3 in WNW 1.2 mph   69 % 0 in 91.0 W/m2 BKN
15:50 35.6 °F 26.1 °F 30.3 in WNW 3 mph 3 mph 68 % 0 in 63.0 W/m2 BKN
15:55 35.8 °F 25.9 °F 30.3 in WNW 5 mph 5 mph 67 % 0 in 88.0 W/m2 BKN
16:00 35.8 °F 25.9 °F 30.3 in NW 4.6 mph 4.6 mph 67 % 0 in 76.0 W/m2 BKN
16:05 35.8 °F 25.9 °F 30.3 in NW 3.5 mph 3.5 mph 67 % 0 in 76.0 W/m2 SCT
16:10 35.8 °F 25.9 °F 30.3 in Calm     67 % 0 in 74.0 W/m2 SCT
16:15 35.8 °F 25.5 °F 30.3 in Calm     66 % 0 in 60.0 W/m2 SCT
16:20 35.8 °F 25.5 °F 30.3 in Calm     66 % 0 in 65.0 W/m2 SCT
16:25 35.8 °F 25.9 °F 30.3 in NW 4 mph 4 mph 67 % 0 in 62.0 W/m2 FEW
16:30 35.8 °F 25.5 °F 30.3 in NW 3.5 mph 3.5 mph 66 % 0 in 51.0 W/m2 CLR
16:35 35.8 °F 25.5 °F 30.3 in Calm     66 % 0 in 39.0 W/m2 CLR
16:41 35.8 °F 25.5 °F 30.3 in Calm     66 % 0 in 40.0 W/m2 CLR
16:46 35.8 °F 25.2 °F 30.3 in Calm     65 % 0 in 47.0 W/m2 CLR
16:51 35.8 °F 25.2 °F 30.3 in Calm     65 % 0 in 39.0 W/m2 SCT
16:56 35.8 °F 25.5 °F 30.3 in Calm     66 % 0 in 33.0 W/m2 OVC
17:01 35.8 °F 25.2 °F 30.3 in Calm     65 % 0 in 26.0 W/m2 OVC
17:06 35.8 °F 25.5 °F 30.3 in Calm     66 % 0 in 18.0 W/m2 OVC
17:11 35.8 °F 25.5 °F 30.3 in Calm     66 % 0 in 26.0 W/m2 OVC
17:16 35.8 °F 25.2 °F 30.3 in Calm     65 % 0 in 23.0 W/m2 OVC
17:21 35.8 °F 25.3 °F 30.3 in Calm     66 % 0 in 19.0 W/m2 OVC
17:26 35.8 °F 25.3 °F 30.3 in Calm     66 % 0 in 21.0 W/m2 OVC
17:31 35.8 °F 25.3 °F 30.3 in Calm     66 % 0 in 21.0 W/m2 OVC
17:36 35.8 °F 25.9 °F 30.3 in Calm     67 % 0 in 12.0 W/m2 OVC
17:41 35.8 °F 25.9 °F 30.3 in Calm     67 % 0 in 9.0 W/m2 OVC
17:46 35.6 °F 25.3 °F 30.3 in Calm     66 % 0 in 5.0 W/m2 OVC
17:51 35.6 °F 25.7 °F 30.3 in Calm     67 % 0 in 0.0 W/m2 OVC
17:56 35.6 °F 25.7 °F 30.3 in Calm     67 % 0 in 0.0 W/m2 OVC
18:01 35.4 °F 25.5 °F 30.3 in Calm     67 % 0 in 0.0 W/m2 OVC
18:06 35.4 °F 25.5 °F 30.3 in Calm     67 % 0 in 0.0 W/m2 CLR
18:11 35.4 °F 25.5 °F 30.3 in Calm     67 % 0 in 0.0 W/m2 CLR
18:16 35.4 °F 25.5 °F 30.3 in Calm     67 % 0 in 0.0 W/m2 CLR
18:21 35.2 °F 25.9 °F 30.3 in Calm     68 % 0 in 0.0 W/m2 CLR
18:26 35.2 °F 25.7 °F 30.3 in Calm     68 % 0 in 0.0 W/m2 CLR
18:31 35.1 °F 25.5 °F 30.3 in Calm     68 % 0 in 0.0 W/m2 CLR
18:36 35.1 °F 25.5 °F 30.3 in Calm     68 % 0 in 0.0 W/m2 CLR
18:41 35.1 °F 25.5 °F 30.3 in Calm     68 % 0 in 0.0 W/m2 CLR
18:46 35.1 °F 25.9 °F 30.3 in Calm     69 % 0 in 0.0 W/m2 CLR
18:51 35.1 °F 25.5 °F 30.3 in Calm     68 % 0 in 0.0 W/m2 CLR
18:56 35.1 °F 25.5 °F 30.3 in Calm     68 % 0 in 0.0 W/m2 CLR
19:01 35.1 °F 25.5 °F 30.3 in Calm     68 % 0 in 0.0 W/m2 CLR
19:06 35.1 °F 25.5 °F 30.3 in Calm     68 % 0 in 0.0 W/m2 CLR
19:11 35.1 °F 25.5 °F 30.3 in Calm     68 % 0 in 0.0 W/m2 CLR
19:16 34.9 °F 25.9 °F 30.3 in Calm     69 % 0 in 0.0 W/m2 CLR
19:21 34.9 °F 25.9 °F 30.3 in Calm     69 % 0 in 0.0 W/m2 CLR
19:26 34.9 °F 25.7 °F 30.3 in Calm     69 % 0 in 0.0 W/m2 CLR
19:31 34.7 °F 25.5 °F 30.3 in Calm     69 % 0 in 0.0 W/m2 CLR
19:36 34.7 °F 25.9 °F 30.3 in Calm     70 % 0 in 0.0 W/m2 CLR
19:41 34.5 °F 26.1 °F 30.3 in Calm     71 % 0 in 0.0 W/m2 CLR
19:46 34.3 °F 26.2 °F 30.3 in Calm     72 % 0 in 0.0 W/m2 CLR
19:51 34.3 °F 26.2 °F 30.3 in Calm     72 % 0 in 0.0 W/m2 CLR
19:56 34.3 °F 26.2 °F 30.3 in Calm     72 % 0 in 0.0 W/m2 CLR
20:01 34.3 °F 26.2 °F 30.3 in Calm     72 % 0 in 0.0 W/m2 CLR
20:06 34.3 °F 26.1 °F 30.3 in Calm     71 % 0 in 0.0 W/m2 CLR
20:11 34.3 °F 26.1 °F 30.3 in Calm     71 % 0 in 0.0 W/m2 CLR
20:16 34.3 °F 26.2 °F 30.3 in Calm     72 % 0 in 0.0 W/m2 CLR
20:21 34.3 °F 26.2 °F 30.3 in Calm     72 % 0 in 0.0 W/m2 CLR
20:26 34.3 °F 26.2 °F 30.3 in Calm     72 % 0 in 0.0 W/m2 CLR
20:31 34.2 °F 26.1 °F 30.3 in Calm     72 % 0 in 0.0 W/m2 CLR
20:36 34.3 °F 26.2 °F 30.3 in Calm     72 % 0 in 0.0 W/m2 CLR
20:41 34.3 °F 26.2 °F 30.3 in Calm     72 % 0 in 0.0 W/m2 CLR
20:46 34.3 °F 26.4 °F 30.3 in Calm     73 % 0 in 0.0 W/m2 CLR
20:52 34.3 °F 26.4 °F 30.3 in Calm     73 % 0 in 0.0 W/m2 CLR
20:57 34.3 °F 26.4 °F 30.3 in Calm     73 % 0 in 0.0 W/m2 CLR
21:02 34.3 °F 26.4 °F 30.3 in Calm     73 % 0 in 0.0 W/m2 CLR
21:07 34.3 °F 26.4 °F 30.3 in Calm     73 % 0 in 0.0 W/m2 CLR
21:12 34.3 °F 27 °F 30.3 in Calm     74 % 0 in 0.0 W/m2 CLR
21:17 34.3 °F 27 °F 30.3 in Calm     74 % 0 in 0.0 W/m2 CLR
21:22 34.3 °F 27 °F 30.3 in Calm     74 % 0 in 0.0 W/m2 CLR
21:27 34.3 °F 27 °F 30.3 in Calm     74 % 0 in 0.0 W/m2 CLR
21:32 34.3 °F 27 °F 30.3 in Calm     74 % 0 in 0.0 W/m2 CLR
21:37 34.3 °F 27 °F 30.3 in Calm     74 % 0 in 0.0 W/m2 CLR
21:42 34.5 °F 27.1 °F 30.3 in Calm     74 % 0 in 0.0 W/m2 CLR
21:47 34.5 °F 27.1 °F 30.3 in Calm     74 % 0 in 0.0 W/m2 CLR
21:52 34.5 °F 27.1 °F 30.3 in Calm     74 % 0 in 0.0 W/m2 CLR
21:57 34.7 °F 27.3 °F 30.3 in Calm     74 % 0 in 0.0 W/m2 CLR
22:02 34.7 °F 27.3 °F 30.3 in Calm     74 % 0 in 0.0 W/m2 CLR
22:07 34.9 °F 27.3 °F 30.3 in Calm     74 % 0 in 0.0 W/m2 CLR
22:12 34.9 °F 27.3 °F 30.3 in Calm     74 % 0 in 0.0 W/m2 CLR
22:17 34.9 °F 27.3 °F 30.3 in Calm     74 % 0 in 0.0 W/m2 CLR
22:22 34.7 °F 27.3 °F 30.3 in Calm     74 % 0 in 0.0 W/m2 CLR
22:27 34.7 °F 27.3 °F 30.3 in Calm     74 % 0 in 0.0 W/m2 CLR
22:32 34.7 °F 27.3 °F 30.3 in Calm     74 % 0 in 0.0 W/m2 CLR
22:37 34.7 °F 27.3 °F 30.3 in Calm     74 % 0 in 0.0 W/m2 CLR
22:42 34.9 °F 27.3 °F 30.3 in Calm     74 % 0 in 0.0 W/m2 CLR
22:47 34.9 °F 27.3 °F 30.3 in Calm     74 % 0 in 0.0 W/m2 CLR
22:52 34.9 °F 27.7 °F 30.3 in Calm     75 % 0 in 0.0 W/m2 CLR
22:57 34.9 °F 27.7 °F 30.3 in Calm     75 % 0 in 0.0 W/m2 CLR
23:02 34.9 °F 27.7 °F 30.3 in Calm     75 % 0 in 0.0 W/m2 CLR
23:07 34.9 °F 27.9 °F 30.3 in Calm     75 % 0 in 0.0 W/m2 CLR
23:12 34.9 °F 27.9 °F 30.3 in Calm     75 % 0 in 0.0 W/m2 CLR
23:17 34.9 °F 27.9 °F 30.3 in Calm     75 % 0 in 0.0 W/m2 CLR
23:22 34.9 °F 27.9 °F 30.3 in Calm     75 % 0 in 0.0 W/m2 CLR
23:27 35.1 °F 27.9 °F 30.3 in Calm     75 % 0 in 0.0 W/m2 CLR
23:32 35.1 °F 27.9 °F 30.3 in Calm     75 % 0 in 0.0 W/m2 CLR
23:37 35.1 °F 27.9 °F 30.3 in Calm     75 % 0 in 0.0 W/m2 CLR
23:42 35.1 °F 27.9 °F 30.3 in Calm     75 % 0 in 0.0 W/m2 CLR
23:47 35.1 °F 28.2 °F 30.3 in Calm     76 % 0 in 0.0 W/m2 CLR
23:52 35.1 °F 28.2 °F 30.3 in Calm     76 % 0 in 0.0 W/m2 CLR
23:57 34.9 °F 28.4 °F 30.3 in Calm     77 % 0 in 0.0 W/m2 CLR
Lo Temps de Massalio
Compliments of Weather Underground - 1.25 mb